createdAt,value
2016-06-26T00:00:10.266Z,99.9
2016-06-26T00:01:10.258Z,99.81
2016-06-26T00:02:10.831Z,99.99
2016-06-26T00:03:10.209Z,99.99
2016-06-26T00:04:10.179Z,99.81
2016-06-26T00:05:10.754Z,99.99
2016-06-26T00:06:10.902Z,99.9
2016-06-26T00:07:10.172Z,99.99
2016-06-26T00:08:10.094Z,99.99
2016-06-26T00:09:10.073Z,99.99
2016-06-26T00:10:10.043Z,99.99
2016-06-26T00:11:10.629Z,99.99
2016-06-26T00:12:10.003Z,99.99
2016-06-26T00:13:10.006Z,99.99
2016-06-26T00:14:10.561Z,99.99
2016-06-26T00:15:09.935Z,99.99
2016-06-26T00:16:10.514Z,99.99
2016-06-26T00:17:10.492Z,99.99
2016-06-26T00:18:10.473Z,99.99
2016-06-26T00:19:09.853Z,99.99
2016-06-26T00:20:09.830Z,99.99
2016-06-26T00:21:10.403Z,99.99
2016-06-26T00:22:10.384Z,99.99
2016-06-26T00:23:09.761Z,99.99
2016-06-26T00:24:10.357Z,99.99
2016-06-26T00:25:10.315Z,99.99
2016-06-26T00:26:10.304Z,99.99
2016-06-26T00:27:09.678Z,99.99
2016-06-26T00:28:10.559Z,99.99
2016-06-26T00:29:10.224Z,99.99
2016-06-26T00:30:09.607Z,99.71
2016-06-26T00:31:09.579Z,99.81
2016-06-26T00:32:09.559Z,99.71
2016-06-26T00:33:09.548Z,99.99
2016-06-26T00:34:09.526Z,99.99
2016-06-26T00:35:09.501Z,99.99
2016-06-26T00:36:10.077Z,99.99
2016-06-26T00:37:09.453Z,99.99
2016-06-26T00:38:09.435Z,99.99
2016-06-26T00:39:10.014Z,99.99
2016-06-26T00:40:09.433Z,99.99
2016-06-26T00:41:09.966Z,99.99
2016-06-26T00:42:09.945Z,99.99
2016-06-26T00:43:09.326Z,99.99
2016-06-26T00:44:09.902Z,99.99
2016-06-26T00:45:09.875Z,99.99
2016-06-26T00:46:09.258Z,99.99
2016-06-26T00:47:09.838Z,99.99
2016-06-26T00:48:09.812Z,99.99
2016-06-26T00:49:09.787Z,99.99
2016-06-26T00:50:09.165Z,99.99
2016-06-26T00:51:09.751Z,99.99
2016-06-26T00:52:09.119Z,99.99
2016-06-26T00:53:09.110Z,99.99
2016-06-26T00:54:09.688Z,99.99
2016-06-26T00:55:09.646Z,99.99
2016-06-26T00:56:09.636Z,99.99
2016-06-26T00:57:09.024Z,99.99
2016-06-26T00:58:08.990Z,99.99
2016-06-26T00:59:08.970Z,99.99
2016-06-26T01:00:09.553Z,99.99
2016-06-26T01:01:09.530Z,99.99
2016-06-26T01:02:09.503Z,99.99
2016-06-26T01:03:09.480Z,99.99
2016-06-26T01:04:08.859Z,99.99
2016-06-26T01:05:09.428Z,99.99
2016-06-26T01:06:09.422Z,99.99
2016-06-26T01:07:09.391Z,99.99
2016-06-26T01:08:08.766Z,99.99
2016-06-26T01:09:09.345Z,99.99
2016-06-26T01:10:09.319Z,99.99
2016-06-26T01:11:09.303Z,99.99
2016-06-26T01:12:08.677Z,99.99
2016-06-26T01:13:09.256Z,99.99
2016-06-26T01:14:09.231Z,99.99
2016-06-26T01:15:08.626Z,99.99
2016-06-26T01:16:09.189Z,99.99
2016-06-26T01:17:08.566Z,99.99
2016-06-26T01:18:09.213Z,99.99
2016-06-26T01:19:09.119Z,99.99
2016-06-26T01:20:08.506Z,99.99
2016-06-26T01:21:09.079Z,99.99
2016-06-26T01:22:09.052Z,99.99
2016-06-26T01:23:08.434Z,99.99
2016-06-26T01:24:09.022Z,99.99
2016-06-26T01:25:08.394Z,99.99
2016-06-26T01:26:08.371Z,99.99
2016-06-26T01:27:08.346Z,99.99
2016-06-26T01:28:08.927Z,99.99
2016-06-26T01:29:08.307Z,99.99
2016-06-26T01:30:08.285Z,99.99
2016-06-26T01:31:08.859Z,99.99
2016-06-26T01:32:08.845Z,99.99
2016-06-26T01:33:08.821Z,99.99
2016-06-26T01:34:08.198Z,99.99
2016-06-26T01:35:08.792Z,99.99
2016-06-26T01:36:08.765Z,99.99
2016-06-26T01:37:08.130Z,99.99
2016-06-26T01:38:08.706Z,99.99
2016-06-26T01:39:08.686Z,99.99
2016-06-26T01:40:08.063Z,99.99
2016-06-26T01:41:08.647Z,99.99
2016-06-26T01:42:08.629Z,99.99
2016-06-26T01:43:08.589Z,99.99
2016-06-26T01:44:07.970Z,99.99
2016-06-26T01:45:08.538Z,99.99
2016-06-26T01:46:07.922Z,99.99
2016-06-26T01:47:07.905Z,99.99
2016-06-26T01:48:07.877Z,99.99
2016-06-26T01:49:08.457Z,99.99
2016-06-26T01:50:08.430Z,99.99
2016-06-26T01:51:08.405Z,99.99
2016-06-26T01:52:08.387Z,99.99
2016-06-26T01:53:08.371Z,99.99
2016-06-26T01:54:08.344Z,99.99
2016-06-26T01:55:08.322Z,99.99
2016-06-26T01:56:07.694Z,99.99
2016-06-26T01:57:08.275Z,99.99
2016-06-26T01:58:08.280Z,99.99
2016-06-26T01:59:07.687Z,99.99
2016-06-26T02:00:08.210Z,99.99
2016-06-26T02:01:07.594Z,99.99
2016-06-26T02:02:08.223Z,99.99
2016-06-26T02:03:07.546Z,99.99
2016-06-26T02:04:08.125Z,99.99
2016-06-26T02:05:08.108Z,99.99
2016-06-26T02:06:08.079Z,99.99
2016-06-26T02:07:08.054Z,99.99
2016-06-26T02:08:07.434Z,99.99
2016-06-26T02:09:07.412Z,99.99
2016-06-26T02:10:07.993Z,99.99
2016-06-26T02:11:07.964Z,99.99
2016-06-26T02:12:07.348Z,99.99
2016-06-26T02:13:07.329Z,99.99
2016-06-26T02:14:07.305Z,99.99
2016-06-26T02:15:07.880Z,99.99
2016-06-26T02:16:07.946Z,99.99
2016-06-26T02:17:07.836Z,99.99
2016-06-26T02:18:07.813Z,99.99
2016-06-26T02:19:07.789Z,99.99
2016-06-26T02:20:07.172Z,99.99
2016-06-26T02:21:07.143Z,99.99
2016-06-26T02:22:07.125Z,99.99
2016-06-26T02:23:07.694Z,99.99
2016-06-26T02:24:07.082Z,99.99
2016-06-26T02:25:07.649Z,99.99
2016-06-26T02:26:07.034Z,99.99
2016-06-26T02:27:07.610Z,99.99
2016-06-26T02:28:07.584Z,99.99
2016-06-26T02:29:07.567Z,99.99
2016-06-26T02:30:06.946Z,99.99
2016-06-26T02:31:07.519Z,99.99
2016-06-26T02:32:07.498Z,99.99
2016-06-26T02:33:06.875Z,99.99
2016-06-26T02:34:06.862Z,99.99
2016-06-26T02:35:07.427Z,99.99
2016-06-26T02:36:07.403Z,99.99
2016-06-26T02:37:07.375Z,99.99
2016-06-26T02:38:07.366Z,99.99
2016-06-26T02:39:06.733Z,99.99
2016-06-26T02:40:06.722Z,99.99
2016-06-26T02:41:06.698Z,99.99
2016-06-26T02:42:06.670Z,99.99
2016-06-26T02:43:06.647Z,99.99
2016-06-26T02:44:06.647Z,99.99
2016-06-26T02:45:06.601Z,99.99
2016-06-26T02:46:07.179Z,99.99
2016-06-26T02:47:06.554Z,99.99
2016-06-26T02:48:07.135Z,99.99
2016-06-26T02:49:07.107Z,99.99
2016-06-26T02:50:07.087Z,99.99
2016-06-26T02:51:06.474Z,99.99
2016-06-26T02:52:07.048Z,99.99
2016-06-26T02:53:07.027Z,99.99
2016-06-26T02:54:06.414Z,99.99
2016-06-26T02:55:06.981Z,99.99
2016-06-26T02:56:06.951Z,99.99
2016-06-26T02:57:06.931Z,99.99
2016-06-26T02:58:06.309Z,99.99
2016-06-26T02:59:06.953Z,99.99
2016-06-26T03:00:06.268Z,99.99
2016-06-26T03:01:06.843Z,99.99
2016-06-26T03:02:06.233Z,99.99
2016-06-26T03:03:06.800Z,99.99
2016-06-26T03:04:06.767Z,99.99
2016-06-26T03:05:06.154Z,99.99
2016-06-26T03:06:06.729Z,99.99
2016-06-26T03:07:06.110Z,99.99
2016-06-26T03:08:06.083Z,99.99
2016-06-26T03:09:06.669Z,99.99
2016-06-26T03:10:06.038Z,99.99
2016-06-26T03:11:06.615Z,99.99
2016-06-26T03:12:05.994Z,99.99
2016-06-26T03:13:05.973Z,99.99
2016-06-26T03:14:05.939Z,99.99
2016-06-26T03:15:05.925Z,99.99
2016-06-26T03:16:06.500Z,99.99
2016-06-26T03:17:06.474Z,99.99
2016-06-26T03:18:06.468Z,99.99
2016-06-26T03:19:05.831Z,99.99
2016-06-26T03:20:06.415Z,99.99
2016-06-26T03:21:05.782Z,99.99
2016-06-26T03:22:06.387Z,99.99
2016-06-26T03:23:06.342Z,99.99
2016-06-26T03:24:05.714Z,99.99
2016-06-26T03:25:06.313Z,99.99
2016-06-26T03:26:06.279Z,99.99
2016-06-26T03:27:05.649Z,99.99
2016-06-26T03:28:05.628Z,99.99
2016-06-26T03:29:06.206Z,99.99
2016-06-26T03:30:05.602Z,99.99
2016-06-26T03:31:05.566Z,99.99
2016-06-26T03:32:05.547Z,99.99
2016-06-26T03:33:05.516Z,99.99
2016-06-26T03:34:06.093Z,99.99
2016-06-26T03:35:05.477Z,99.99
2016-06-26T03:36:05.450Z,99.99
2016-06-26T03:37:05.437Z,99.99
2016-06-26T03:38:06.005Z,99.99
2016-06-26T03:39:05.380Z,99.99
2016-06-26T03:40:05.988Z,99.99
2016-06-26T03:41:05.334Z,99.99
2016-06-26T03:42:05.318Z,99.99
2016-06-26T03:43:05.889Z,99.99
2016-06-26T03:44:05.274Z,99.99
2016-06-26T03:45:05.857Z,99.99
2016-06-26T03:46:05.234Z,99.99
2016-06-26T03:47:05.203Z,99.99
2016-06-26T03:48:05.780Z,99.99
2016-06-26T03:49:05.755Z,99.99
2016-06-26T03:50:05.732Z,99.99
2016-06-26T03:51:05.118Z,99.99
2016-06-26T03:52:05.097Z,99.99
2016-06-26T03:53:05.067Z,99.99
2016-06-26T03:54:05.041Z,99.99
2016-06-26T03:55:05.628Z,99.99
2016-06-26T03:56:05.609Z,99.99
2016-06-26T03:57:04.974Z,99.99
2016-06-26T03:58:05.558Z,99.99
2016-06-26T03:59:05.529Z,99.99
2016-06-26T04:00:05.517Z,99.99
2016-06-26T04:01:05.488Z,99.99
2016-06-26T04:02:05.467Z,99.99
2016-06-26T04:03:04.838Z,99.99
2016-06-26T04:04:05.418Z,99.99
2016-06-26T04:05:05.397Z,99.99
2016-06-26T04:06:05.383Z,99.99
2016-06-26T04:07:04.763Z,99.99
2016-06-26T04:08:05.338Z,99.99
2016-06-26T04:09:04.714Z,99.99
2016-06-26T04:10:05.285Z,99.99
2016-06-26T04:11:04.655Z,99.99
2016-06-26T04:12:05.254Z,99.99
2016-06-26T04:13:04.617Z,99.99
2016-06-26T04:14:04.594Z,99.99
2016-06-26T04:15:04.576Z,99.99
2016-06-26T04:16:05.160Z,99.99
2016-06-26T04:17:05.134Z,99.99
2016-06-26T04:18:05.107Z,99.99
2016-06-26T04:19:04.489Z,99.99
2016-06-26T04:20:04.465Z,99.99
2016-06-26T04:21:05.045Z,99.99
2016-06-26T04:22:05.015Z,99.99
2016-06-26T04:23:04.400Z,99.99
2016-06-26T04:24:04.390Z,99.99
2016-06-26T04:25:04.969Z,99.99
2016-06-26T04:26:04.334Z,99.99
2016-06-26T04:27:04.322Z,99.99
2016-06-26T04:28:04.903Z,99.99
2016-06-26T04:29:04.862Z,99.99
2016-06-26T04:30:04.264Z,99.99
2016-06-26T04:31:04.822Z,99.99
2016-06-26T04:32:04.807Z,99.99
2016-06-26T04:33:04.778Z,99.99
2016-06-26T04:34:04.161Z,99.99
2016-06-26T04:35:04.154Z,99.99
2016-06-26T04:36:04.714Z,99.99
2016-06-26T04:37:04.107Z,99.99
2016-06-26T04:38:04.073Z,99.99
2016-06-26T04:39:04.055Z,99.99
2016-06-26T04:40:04.626Z,99.99
2016-06-26T04:41:03.998Z,99.99
2016-06-26T04:42:04.590Z,99.99
2016-06-26T04:43:03.983Z,99.99
2016-06-26T04:44:03.942Z,99.99
2016-06-26T04:45:04.538Z,99.99
2016-06-26T04:46:03.898Z,99.99
2016-06-26T04:47:04.476Z,99.99
2016-06-26T04:48:03.862Z,99.99
2016-06-26T04:49:03.833Z,99.99
2016-06-26T04:50:04.417Z,99.99
2016-06-26T04:51:03.783Z,99.99
2016-06-26T04:52:03.795Z,99.99
2016-06-26T04:53:04.342Z,99.99
2016-06-26T04:54:04.321Z,99.99
2016-06-26T04:55:04.298Z,99.99
2016-06-26T04:56:04.274Z,99.99
2016-06-26T04:57:04.269Z,99.99
2016-06-26T04:58:04.258Z,99.99
2016-06-26T04:59:04.223Z,99.99
2016-06-26T05:00:03.603Z,99.99
2016-06-26T05:01:04.174Z,99.99
2016-06-26T05:02:03.565Z,99.99
2016-06-26T05:03:04.142Z,99.99
2016-06-26T05:04:04.116Z,99.99
2016-06-26T05:05:03.497Z,99.99
2016-06-26T05:06:04.064Z,99.99
2016-06-26T05:07:03.472Z,99.99
2016-06-26T05:08:03.431Z,99.99
2016-06-26T05:09:03.414Z,99.99
2016-06-26T05:10:04.045Z,99.99
2016-06-26T05:11:03.380Z,99.99
2016-06-26T05:12:03.955Z,99.99
2016-06-26T05:13:03.925Z,99.99
2016-06-26T05:14:03.917Z,99.81
2016-06-26T05:15:03.903Z,99.99
2016-06-26T05:16:03.877Z,99.99
2016-06-26T05:17:03.861Z,99.91
2016-06-26T05:18:03.227Z,99.99
2016-06-26T05:19:03.815Z,99.99
2016-06-26T05:20:03.194Z,99.43
2016-06-26T05:21:03.175Z,99.99
2016-06-26T05:22:03.155Z,99.99
2016-06-26T05:23:03.730Z,99.52
2016-06-26T05:24:03.708Z,99.99
2016-06-26T05:25:03.095Z,99.99
2016-06-26T05:26:03.674Z,99.87
2016-06-26T05:27:03.644Z,99.87
2016-06-26T05:28:03.031Z,99.87
2016-06-26T05:29:03.616Z,99.99
2016-06-26T05:30:03.595Z,99.99
2016-06-26T05:31:03.565Z,99.99
2016-06-26T05:32:03.746Z,99.99
2016-06-26T05:33:02.935Z,99.99
2016-06-26T05:34:02.914Z,99.99
2016-06-26T05:35:03.500Z,99.99
2016-06-26T05:36:03.471Z,99.99
2016-06-26T05:37:03.463Z,99.53
2016-06-26T05:38:03.426Z,99.99
2016-06-26T05:39:03.419Z,99.63
2016-06-26T05:40:02.819Z,99.63
2016-06-26T05:41:03.422Z,99.63
2016-06-26T05:42:03.371Z,99.82
2016-06-26T05:43:03.349Z,99.96
2016-06-26T05:44:02.733Z,99.99
2016-06-26T05:45:02.714Z,99.68
2016-06-26T05:46:03.303Z,99.39
2016-06-26T05:47:02.680Z,99.48
2016-06-26T05:48:02.667Z,99.29
2016-06-26T05:49:03.248Z,99.29
2016-06-26T05:50:02.637Z,99.19
2016-06-26T05:51:03.213Z,98.72
2016-06-26T05:52:03.195Z,98.72
2016-06-26T05:53:03.186Z,99.1
2016-06-26T05:54:03.166Z,99.39
2016-06-26T05:55:03.139Z,99.05
2016-06-26T05:56:03.129Z,99.19
2016-06-26T05:57:02.501Z,99.34
2016-06-26T05:58:03.093Z,98.86
2016-06-26T05:59:03.070Z,98.1
2016-06-26T06:00:03.082Z,98.1
2016-06-26T06:01:03.039Z,98.38
2016-06-26T06:02:02.432Z,98.38
2016-06-26T06:03:02.402Z,98.57
2016-06-26T06:04:02.991Z,98.48
2016-06-26T06:05:02.379Z,98.48
2016-06-26T06:06:02.359Z,98.57
2016-06-26T06:07:02.341Z,98.38
2016-06-26T06:08:02.923Z,98.1
2016-06-26T06:09:02.313Z,98
2016-06-26T06:10:02.888Z,98.19
2016-06-26T06:11:02.282Z,98.38
2016-06-26T06:12:02.854Z,98.28
2016-06-26T06:13:02.240Z,98.38
2016-06-26T06:14:02.218Z,98.38
2016-06-26T06:15:02.798Z,98.67
2016-06-26T06:16:02.792Z,98.53
2016-06-26T06:17:02.766Z,98.82
2016-06-26T06:18:02.748Z,98.62
2016-06-26T06:19:02.736Z,98.33
2016-06-26T06:20:02.716Z,97.47
2016-06-26T06:21:02.708Z,97.56
2016-06-26T06:22:02.094Z,97.56
2016-06-26T06:23:02.086Z,97.38
2016-06-26T06:24:02.060Z,97.47
2016-06-26T06:25:02.646Z,97.28
2016-06-26T06:26:02.610Z,97.56
2016-06-26T06:27:02.598Z,97.56
2016-06-26T06:28:02.586Z,97.38
2016-06-26T06:29:02.576Z,97.47
2016-06-26T06:30:02.559Z,97.86
2016-06-26T06:31:02.540Z,97.09
2016-06-26T06:32:02.522Z,96.89
2016-06-26T06:33:02.506Z,97.19
2016-06-26T06:34:02.495Z,96.99
2016-06-26T06:35:01.889Z,97.19
2016-06-26T06:36:02.456Z,97.19
2016-06-26T06:37:01.851Z,96.89
2016-06-26T06:38:02.432Z,96.99
2016-06-26T06:39:01.834Z,96.8
2016-06-26T06:40:02.401Z,96.42
2016-06-26T06:41:01.792Z,96.51
2016-06-26T06:42:02.393Z,96.51
2016-06-26T06:43:02.343Z,96.66
2016-06-26T06:44:01.761Z,96.7
2016-06-26T06:45:02.311Z,97.19
2016-06-26T06:46:01.733Z,96.85
2016-06-26T06:47:01.684Z,96.94
2016-06-26T06:48:01.665Z,96.85
2016-06-26T06:49:01.642Z,96.85
2016-06-26T06:50:01.633Z,97.14
2016-06-26T06:51:02.218Z,96.56
2016-06-26T06:52:02.198Z,96.75
2016-06-26T06:53:01.580Z,96.18
2016-06-26T06:54:02.159Z,96.94
2016-06-26T06:55:02.136Z,96.37
2016-06-26T06:56:01.533Z,96.47
2016-06-26T06:57:02.144Z,96.66
2016-06-26T06:58:01.496Z,96.85
2016-06-26T06:59:02.090Z,96.75
2016-06-26T07:00:01.468Z,97.42
2016-06-26T07:01:01.459Z,96.85
2016-06-26T07:02:02.061Z,96.85
2016-06-26T07:03:02.012Z,97.04
2016-06-26T07:04:01.418Z,97.33
2016-06-26T07:05:01.986Z,97.52
2016-06-26T07:06:01.967Z,97.71
2016-06-26T07:07:01.957Z,98.05
2016-06-26T07:08:01.343Z,97.09
2016-06-26T07:09:01.925Z,97.66
2016-06-26T07:10:01.918Z,97.76
2016-06-26T07:11:01.894Z,97.86
2016-06-26T07:12:01.877Z,97.28
2016-06-26T07:13:01.270Z,97.38
2016-06-26T07:14:01.842Z,97.38
2016-06-26T07:15:01.828Z,97.24
2016-06-26T07:16:01.822Z,96.51
2016-06-26T07:17:01.807Z,96.99
2016-06-26T07:18:01.775Z,96.85
2016-06-26T07:19:01.775Z,96.66
2016-06-26T07:20:01.159Z,96.75
2016-06-26T07:21:01.763Z,96.27
2016-06-26T07:22:01.725Z,96.27
2016-06-26T07:23:01.125Z,96.08
2016-06-26T07:24:01.709Z,96.18
2016-06-26T07:25:01.682Z,96.37
2016-06-26T07:26:01.062Z,96.42
2016-06-26T07:27:01.057Z,96.75
2016-06-26T07:28:01.637Z,96.47
2016-06-26T07:29:01.027Z,96.37
2016-06-26T07:30:01.015Z,96.56
2016-06-26T07:31:01.588Z,96.18
2016-06-26T07:32:00.977Z,96.56
2016-06-26T07:33:00.965Z,96.85
2016-06-26T07:34:01.553Z,97.04
2016-06-26T07:35:01.540Z,97.14
2016-06-26T07:36:01.511Z,96.99
2016-06-26T07:37:01.514Z,96.7
2016-06-26T07:38:00.883Z,96.7
2016-06-26T07:39:01.495Z,96.03
2016-06-26T07:40:01.464Z,96.03
2016-06-26T07:41:00.855Z,96.13
2016-06-26T07:42:00.825Z,95.45
2016-06-26T07:43:00.839Z,95.55
2016-06-26T07:44:01.402Z,95.94
2016-06-26T07:45:00.786Z,95.45
2016-06-26T07:46:00.778Z,95.26
2016-06-26T07:47:01.355Z,95.55
2016-06-26T07:48:00.751Z,95.7
2016-06-26T07:49:01.325Z,95.5
2016-06-26T07:50:01.346Z,96.22
2016-06-26T07:51:00.706Z,96.32
2016-06-26T07:52:00.683Z,96.13
2016-06-26T07:53:00.693Z,95.65
2016-06-26T07:54:00.662Z,95.65
2016-06-26T07:55:00.638Z,96.13
2016-06-26T07:56:00.630Z,95.75
2016-06-26T07:57:01.224Z,96.8
2016-06-26T07:58:01.195Z,96.89
2016-06-26T07:59:01.194Z,95.94
2016-06-26T08:00:01.185Z,95.6
2016-06-26T08:01:01.162Z,95.5
2016-06-26T08:02:01.156Z,95.36
2016-06-26T08:03:01.141Z,95.5
2016-06-26T08:04:00.530Z,95.31
2016-06-26T08:05:01.103Z,95.89
2016-06-26T08:06:00.495Z,95.21
2016-06-26T08:07:01.079Z,95.4
2016-06-26T08:08:00.469Z,95.17
2016-06-26T08:09:01.053Z,94.83
2016-06-26T08:10:01.034Z,94.54
2016-06-26T08:11:00.434Z,94.64
2016-06-26T08:12:00.411Z,94.26
2016-06-26T08:13:00.991Z,93.58
2016-06-26T08:14:00.406Z,93.68
2016-06-26T08:15:00.992Z,93.96
2016-06-26T08:16:00.958Z,94.16
2016-06-26T08:17:00.356Z,94.16
2016-06-26T08:18:00.928Z,94.01
2016-06-26T08:19:00.316Z,93.82
2016-06-26T08:20:00.307Z,94.59
2016-06-26T08:21:00.287Z,94.59
2016-06-26T08:22:00.280Z,94.21
2016-06-26T08:23:00.270Z,94.21
2016-06-26T08:24:00.255Z,93.91
2016-06-26T08:25:00.272Z,94.01
2016-06-26T08:26:00.229Z,94.06
2016-06-26T08:27:00.809Z,93.48
2016-06-26T08:28:00.812Z,93.38
2016-06-26T08:29:00.207Z,93.38
2016-06-26T08:30:00.773Z,93.73
2016-06-26T08:31:00.773Z,93.63
2016-06-26T08:32:00.143Z,94.01
2016-06-26T08:33:00.126Z,93.34
2016-06-26T08:34:00.728Z,93.73
2016-06-26T08:35:00.715Z,94.3
2016-06-26T08:36:00.690Z,94.64
2016-06-26T08:37:00.092Z,94.64
2016-06-26T08:38:00.080Z,94.54
2016-06-26T08:39:00.050Z,95.4
2016-06-26T08:40:00.037Z,95.84
2016-06-26T08:41:00.027Z,95.36
2016-06-26T08:42:00.614Z,95.17
2016-06-26T08:43:00.608Z,94.97
2016-06-26T08:43:59.987Z,94.68
2016-06-26T08:45:00.007Z,94.59
2016-06-26T08:46:00.615Z,93.91
2016-06-26T08:46:59.967Z,94.01
2016-06-26T08:48:00.580Z,93
2016-06-26T08:49:00.552Z,92.42
2016-06-26T08:50:00.532Z,91.94
2016-06-26T08:50:59.932Z,92.13
2016-06-26T08:51:59.920Z,92.08
2016-06-26T08:52:59.891Z,91.55
2016-06-26T08:54:00.482Z,91.6
2016-06-26T08:55:00.463Z,92.38
2016-06-26T08:55:59.879Z,92.57
2016-06-26T08:56:59.855Z,93.19
2016-06-26T08:57:59.841Z,93.29
2016-06-26T08:58:59.827Z,93
2016-06-26T08:59:59.821Z,92.71
2016-06-26T09:00:59.807Z,92.71
2016-06-26T09:02:00.393Z,93
2016-06-26T09:02:59.779Z,93
2016-06-26T09:03:59.777Z,92.18
2016-06-26T09:04:59.763Z,92.47
2016-06-26T09:05:59.761Z,92.37
2016-06-26T09:06:59.750Z,91.79
2016-06-26T09:08:00.340Z,91.26
2016-06-26T09:08:59.722Z,91.6
2016-06-26T09:09:59.727Z,92.08
2016-06-26T09:11:00.314Z,92.9
2016-06-26T09:12:00.675Z,92.22
2016-06-26T09:13:00.286Z,91.45
2016-06-26T09:14:00.269Z,91.55
2016-06-26T09:14:59.687Z,91.16
2016-06-26T09:16:00.261Z,90.78
2016-06-26T09:17:00.249Z,90.1
2016-06-26T09:18:00.240Z,90.1
2016-06-26T09:19:00.239Z,90.2
2016-06-26T09:20:00.219Z,90.68
2016-06-26T09:21:00.214Z,90.78
2016-06-26T09:21:59.608Z,90.3
2016-06-26T09:23:00.190Z,90
2016-06-26T09:24:00.197Z,90.3
2016-06-26T09:25:00.179Z,90
2016-06-26T09:26:00.165Z,90.68
2016-06-26T09:26:59.554Z,90.44
2016-06-26T09:28:00.158Z,90.72
2016-06-26T09:29:00.134Z,90.53
2016-06-26T09:29:59.533Z,90.24
2016-06-26T09:30:59.524Z,90.05
2016-06-26T09:31:59.503Z,90.3
2016-06-26T09:32:59.493Z,89.33
2016-06-26T09:33:59.488Z,89.53
2016-06-26T09:34:59.478Z,89.14
2016-06-26T09:36:00.064Z,89.53
2016-06-26T09:37:00.052Z,88.51
2016-06-26T09:37:59.440Z,89.29
2016-06-26T09:39:00.025Z,88.71
2016-06-26T09:39:59.415Z,90.3
2016-06-26T09:41:00.029Z,91.31
2016-06-26T09:41:59.395Z,91.12
2016-06-26T09:42:59.393Z,91.6
2016-06-26T09:43:59.971Z,92.08
2016-06-26T09:44:59.369Z,91.55
2016-06-26T09:45:59.353Z,91.21
2016-06-26T09:46:59.938Z,91.83
2016-06-26T09:47:59.334Z,91.99
2016-06-26T09:48:59.319Z,90.68
2016-06-26T09:49:59.907Z,90.64
2016-06-26T09:50:59.303Z,89.96
2016-06-26T09:51:59.883Z,90.92
2016-06-26T09:52:59.962Z,92.08
2016-06-26T09:53:59.269Z,92.76
2016-06-26T09:54:59.855Z,91.74
2016-06-26T09:55:59.239Z,91.64
2016-06-26T09:56:59.836Z,91.45
2016-06-26T09:57:59.215Z,91.64
2016-06-26T09:58:59.825Z,92.9
2016-06-26T09:59:59.194Z,92.71
2016-06-26T10:00:59.189Z,93.13
2016-06-26T10:01:59.765Z,93.71
2016-06-26T10:02:59.171Z,94
2016-06-26T10:03:59.750Z,94
2016-06-26T10:04:59.149Z,94.78
2016-06-26T10:05:59.169Z,94.82
2016-06-26T10:06:59.733Z,93.95
2016-06-26T10:07:59.720Z,93.23
2016-06-26T10:08:59.733Z,91.59
2016-06-26T10:09:59.114Z,91.11
2016-06-26T10:10:59.102Z,91.39
2016-06-26T10:11:59.719Z,92.36
2016-06-26T10:12:59.691Z,93.9
2016-06-26T10:13:59.674Z,94.14
2016-06-26T10:14:59.676Z,94.19
2016-06-26T10:15:59.674Z,92.55
2016-06-26T10:16:59.659Z,92.07
2016-06-26T10:17:59.066Z,91.49
2016-06-26T10:18:59.651Z,89.55
2016-06-26T10:19:59.643Z,87.62
2016-06-26T10:20:59.639Z,87.43
2016-06-26T10:21:59.031Z,86.42
2016-06-26T10:22:59.630Z,86.71
2016-06-26T10:23:59.613Z,87.05
2016-06-26T10:24:59.029Z,86.66
2016-06-26T10:25:59.598Z,87.05
2016-06-26T10:26:59.585Z,87.44
2016-06-26T10:27:59.581Z,87.82
2016-06-26T10:28:58.967Z,88.31
2016-06-26T10:29:58.962Z,89.07
2016-06-26T10:30:58.955Z,87.92
2016-06-26T10:31:59.561Z,88.21
2016-06-26T10:32:59.538Z,88.17
2016-06-26T10:33:58.937Z,90.23
2016-06-26T10:34:59.513Z,91.88
2016-06-26T10:35:59.507Z,91.68
2016-06-26T10:36:59.492Z,93.18
2016-06-26T10:37:58.887Z,92.89
2016-06-26T10:38:59.478Z,89.84
2016-06-26T10:39:59.473Z,88.64
2016-06-26T10:40:59.465Z,87.33
2016-06-26T10:41:58.869Z,87.38
2016-06-26T10:42:59.451Z,89.99
2016-06-26T10:43:58.844Z,92.31
2016-06-26T10:44:58.824Z,92.11
2016-06-26T10:45:58.821Z,92.5
2016-06-26T10:46:59.420Z,93.41
2016-06-26T10:47:59.398Z,93.51
2016-06-26T10:48:59.396Z,91.87
2016-06-26T10:49:59.390Z,92.45
2016-06-26T10:50:58.783Z,93.23
2016-06-26T10:51:59.370Z,91.24
2016-06-26T10:52:59.377Z,89.69
2016-06-26T10:53:58.773Z,88.63
2016-06-26T10:54:58.765Z,88.24
2016-06-26T10:55:59.363Z,87.47
2016-06-26T10:56:58.742Z,87.43
2016-06-26T10:57:58.751Z,87.52
2016-06-26T10:58:59.339Z,87.23
2016-06-26T10:59:58.724Z,87.43
2016-06-26T11:00:58.717Z,87.13
2016-06-26T11:01:58.719Z,86.51
2016-06-26T11:02:59.303Z,86.36
2016-06-26T11:03:59.319Z,86.56
2016-06-26T11:04:59.304Z,88.29
2016-06-26T11:05:59.297Z,90.13
2016-06-26T11:06:59.267Z,91.87
2016-06-26T11:07:59.258Z,89.94
2016-06-26T11:08:59.256Z,88.82
2016-06-26T11:09:59.246Z,90.81
2016-06-26T11:10:58.647Z,91.82
2016-06-26T11:11:59.235Z,91.43
2016-06-26T11:12:59.222Z,91.24
2016-06-26T11:13:59.213Z,89.4
2016-06-26T11:14:58.595Z,88.43
2016-06-26T11:15:59.196Z,88.34
2016-06-26T11:16:58.595Z,87.57
2016-06-26T11:17:58.586Z,88.24
2016-06-26T11:18:59.180Z,89.98
2016-06-26T11:19:58.565Z,89.74
2016-06-26T11:20:58.564Z,89.54
2016-06-26T11:21:59.162Z,89.93
2016-06-26T11:22:59.149Z,90.17
2016-06-26T11:23:58.534Z,90.65
2016-06-26T11:24:59.135Z,90.65
2016-06-26T11:25:59.129Z,90.84
2016-06-26T11:26:58.528Z,90.5
2016-06-26T11:27:58.516Z,90.41
2016-06-26T11:28:58.518Z,91.28
2016-06-26T11:29:58.516Z,90.36
2016-06-26T11:30:59.111Z,89.72
2016-06-26T11:31:59.106Z,88.75
2016-06-26T11:32:58.504Z,87.78
2016-06-26T11:33:58.489Z,86.82
2016-06-26T11:34:59.089Z,87.01
2016-06-26T11:35:59.083Z,86.82
2016-06-26T11:36:59.098Z,87.2
2016-06-26T11:37:59.101Z,85.07
2016-06-26T11:38:58.486Z,84.68
2016-06-26T11:39:59.068Z,84.88
2016-06-26T11:40:59.087Z,83.33
2016-06-26T11:41:59.066Z,83.81
2016-06-26T11:42:59.065Z,85.65
2016-06-26T11:43:58.452Z,85.55
2016-06-26T11:44:59.051Z,85.27
2016-06-26T11:45:59.051Z,85.6
2016-06-26T11:46:58.437Z,85.79
2016-06-26T11:47:58.459Z,85.25
2016-06-26T11:48:58.437Z,85.21
2016-06-26T11:49:58.430Z,84.86
2016-06-26T11:50:59.037Z,84.05
2016-06-26T11:51:58.424Z,84.72
2016-06-26T11:52:58.421Z,85.02
2016-06-26T11:53:58.417Z,85.11
2016-06-26T11:54:59.017Z,84.77
2016-06-26T11:55:58.414Z,85.54
2016-06-26T11:56:58.999Z,84.86
2016-06-26T11:57:59.004Z,85
2016-06-26T11:58:58.396Z,84.03
2016-06-26T11:59:59.003Z,84.32
2016-06-26T12:00:59.001Z,83.29
2016-06-26T12:01:59.013Z,83.1
2016-06-26T12:02:58.988Z,83.1
2016-06-26T12:03:58.387Z,83.29
2016-06-26T12:04:58.986Z,82.52
2016-06-26T12:05:58.994Z,83.39
2016-06-26T12:06:58.393Z,83.34
2016-06-26T12:07:58.982Z,83.04
2016-06-26T12:08:58.387Z,82.89
2016-06-26T12:09:58.978Z,82.7
2016-06-26T12:10:58.391Z,82.7
2016-06-26T12:11:58.385Z,81.92
2016-06-26T12:12:58.982Z,82.31
2016-06-26T12:13:58.373Z,81.48
2016-06-26T12:14:58.370Z,81.28
2016-06-26T12:15:58.382Z,81.24
2016-06-26T12:16:58.375Z,80.07
2016-06-26T12:17:58.973Z,80.46
2016-06-26T12:18:58.965Z,80.56
2016-06-26T12:19:58.369Z,80.52
2016-06-26T12:20:58.969Z,79.35
2016-06-26T12:21:58.363Z,78.34
2016-06-26T12:22:58.373Z,79.02
2016-06-26T12:23:58.969Z,78.69
2016-06-26T12:24:58.964Z,80.48
2016-06-26T12:25:58.367Z,81.06
2016-06-26T12:26:58.954Z,80.77
2016-06-26T12:27:58.338Z,81.02
2016-06-26T12:28:58.953Z,81.55
2016-06-26T12:29:58.966Z,81.74
2016-06-26T12:30:58.958Z,83.1
2016-06-26T12:31:58.334Z,83.39
2016-06-26T12:32:58.927Z,83.92
2016-06-26T12:33:58.924Z,84.06
2016-06-26T12:34:58.316Z,83.47
2016-06-26T12:35:58.927Z,83.76
2016-06-26T12:36:58.911Z,84.06
2016-06-26T12:37:58.927Z,84.16
2016-06-26T12:38:58.906Z,83.91
2016-06-26T12:39:58.306Z,84.39
2016-06-26T12:40:58.306Z,83.85
2016-06-26T12:41:58.897Z,83.36
2016-06-26T12:42:58.896Z,82.92
2016-06-26T12:43:58.305Z,82.47
2016-06-26T12:44:58.296Z,81.88
2016-06-26T12:45:58.911Z,81.69
2016-06-26T12:46:58.899Z,81.88
2016-06-26T12:47:58.887Z,81.4
2016-06-26T12:48:58.898Z,80.82
2016-06-26T12:49:58.299Z,80.46
2016-06-26T12:50:58.887Z,79.16
2016-06-26T12:51:58.295Z,80.04
2016-06-26T12:52:58.906Z,78.48
2016-06-26T12:53:58.300Z,77.7
2016-06-26T12:54:58.291Z,77.08